sensor_id;sensor_type;location;lat;lon;timestamp;temperature;humidity
6496;DHT22;3281;47.658;9.166;2023-03-14T00:00:09;9.20;1.00
6496;DHT22;3281;47.658;9.166;2023-03-14T00:02:36;9.20;1.00
6496;DHT22;3281;47.658;9.166;2023-03-14T00:05:05;9.30;1.00
6496;DHT22;3281;47.658;9.166;2023-03-14T00:07:33;9.30;1.00
6496;DHT22;3281;47.658;9.166;2023-03-14T00:10:01;9.30;1.00
6496;DHT22;3281;47.658;9.166;2023-03-14T00:12:29;9.40;1.00
6496;DHT22;3281;47.658;9.166;2023-03-14T00:14:56;9.40;1.00
6496;DHT22;3281;47.658;9.166;2023-03-14T00:17:23;9.40;1.00
6496;DHT22;3281;47.658;9.166;2023-03-14T00:19:50;9.40;1.00
6496;DHT22;3281;47.658;9.166;2023-03-14T00:22:20;9.40;1.00
6496;DHT22;3281;47.658;9.166;2023-03-14T00:24:47;9.40;1.00
6496;DHT22;3281;47.658;9.166;2023-03-14T00:27:14;9.40;1.00
6496;DHT22;3281;47.658;9.166;2023-03-14T00:29:42;9.50;1.00
6496;DHT22;3281;47.658;9.166;2023-03-14T00:32:09;9.40;1.00
6496;DHT22;3281;47.658;9.166;2023-03-14T00:34:35;9.40;1.00
6496;DHT22;3281;47.658;9.166;2023-03-14T00:37:02;9.50;1.00
6496;DHT22;3281;47.658;9.166;2023-03-14T00:39:30;9.30;1.00
6496;DHT22;3281;47.658;9.166;2023-03-14T00:41:57;9.40;1.00
6496;DHT22;3281;47.658;9.166;2023-03-14T00:44:23;9.30;1.00
6496;DHT22;3281;47.658;9.166;2023-03-14T00:46:50;9.30;1.00
6496;DHT22;3281;47.658;9.166;2023-03-14T00:49:17;9.30;1.00
6496;DHT22;3281;47.658;9.166;2023-03-14T00:51:44;9.20;1.00
6496;DHT22;3281;47.658;9.166;2023-03-14T00:54:11;9.30;1.00
6496;DHT22;3281;47.658;9.166;2023-03-14T00:56:39;9.20;1.00
6496;DHT22;3281;47.658;9.166;2023-03-14T00:59:05;9.30;1.00
6496;DHT22;3281;47.658;9.166;2023-03-14T01:01:32;9.30;1.00
6496;DHT22;3281;47.658;9.166;2023-03-14T01:03:59;9.30;1.00
6496;DHT22;3281;47.658;9.166;2023-03-14T01:06:27;9.20;3.70
6496;DHT22;3281;47.658;9.166;2023-03-14T01:08:55;9.30;4.20
6496;DHT22;3281;47.658;9.166;2023-03-14T01:11:24;9.30;3.90
6496;DHT22;3281;47.658;9.166;2023-03-14T01:13:53;9.30;1.70
6496;DHT22;3281;47.658;9.166;2023-03-14T01:16:21;9.30;1.00
6496;DHT22;3281;47.658;9.166;2023-03-14T01:18:48;9.40;1.00
6496;DHT22;3281;47.658;9.166;2023-03-14T01:21:17;9.30;1.00
6496;DHT22;3281;47.658;9.166;2023-03-14T01:23:44;9.40;1.00
6496;DHT22;3281;47.658;9.166;2023-03-14T01:26:12;9.30;1.00
6496;DHT22;3281;47.658;9.166;2023-03-14T01:28:39;9.40;1.00
6496;DHT22;3281;47.658;9.166;2023-03-14T01:31:09;9.30;1.00
6496;DHT22;3281;47.658;9.166;2023-03-14T01:33:36;9.30;1.00
6496;DHT22;3281;47.658;9.166;2023-03-14T01:36:04;9.20;1.00
6496;DHT22;3281;47.658;9.166;2023-03-14T01:38:32;9.30;1.00
6496;DHT22;3281;47.658;9.166;2023-03-14T01:41:00;9.30;1.00
6496;DHT22;3281;47.658;9.166;2023-03-14T01:43:28;9.30;1.00
6496;DHT22;3281;47.658;9.166;2023-03-14T01:46:14;9.30;1.00
6496;DHT22;3281;47.658;9.166;2023-03-14T01:48:45;9.30;1.00
6496;DHT22;3281;47.658;9.166;2023-03-14T01:51:17;9.30;1.00
6496;DHT22;3281;47.658;9.166;2023-03-14T01:53:45;9.20;1.00
6496;DHT22;3281;47.658;9.166;2023-03-14T01:56:14;9.30;1.00
6496;DHT22;3281;47.658;9.166;2023-03-14T01:58:46;9.30;1.00
6496;DHT22;3281;47.658;9.166;2023-03-14T02:01:16;9.40;1.00
6496;DHT22;3281;47.658;9.166;2023-03-14T02:03:48;9.40;1.00
6496;DHT22;3281;47.658;9.166;2023-03-14T02:06:17;9.30;1.00
6496;DHT22;3281;47.658;9.166;2023-03-14T02:08:47;9.40;1.00
6496;DHT22;3281;47.658;9.166;2023-03-14T02:11:15;9.40;1.00
6496;DHT22;3281;47.658;9.166;2023-03-14T02:13:43;9.40;1.00
6496;DHT22;3281;47.658;9.166;2023-03-14T02:16:10;9.30;1.00
6496;DHT22;3281;47.658;9.166;2023-03-14T02:18:39;9.40;1.00
6496;DHT22;3281;47.658;9.166;2023-03-14T02:21:13;9.30;1.00
6496;DHT22;3281;47.658;9.166;2023-03-14T02:23:52;9.40;1.00
6496;DHT22;3281;47.658;9.166;2023-03-14T02:26:22;9.40;1.00
6496;DHT22;3281;47.658;9.166;2023-03-14T02:28:51;9.40;1.00
6496;DHT22;3281;47.658;9.166;2023-03-14T02:31:22;9.40;1.00
6496;DHT22;3281;47.658;9.166;2023-03-14T02:33:49;9.40;1.00
6496;DHT22;3281;47.658;9.166;2023-03-14T02:36:18;9.30;1.00
6496;DHT22;3281;47.658;9.166;2023-03-14T02:38:47;9.40;1.00
6496;DHT22;3281;47.658;9.166;2023-03-14T02:41:16;9.30;1.00
6496;DHT22;3281;47.658;9.166;2023-03-14T02:43:43;9.30;1.00
6496;DHT22;3281;47.658;9.166;2023-03-14T02:46:13;9.30;1.00
6496;DHT22;3281;47.658;9.166;2023-03-14T02:48:44;9.40;1.00
6496;DHT22;3281;47.658;9.166;2023-03-14T02:51:12;9.30;1.00
6496;DHT22;3281;47.658;9.166;2023-03-14T02:53:40;9.30;1.00
6496;DHT22;3281;47.658;9.166;2023-03-14T02:56:08;9.20;1.00
6496;DHT22;3281;47.658;9.166;2023-03-14T02:58:35;9.20;1.00
6496;DHT22;3281;47.658;9.166;2023-03-14T03:01:03;9.20;1.00
6496;DHT22;3281;47.658;9.166;2023-03-14T03:03:31;9.20;1.00
6496;DHT22;3281;47.658;9.166;2023-03-14T03:05:58;9.20;1.00
6496;DHT22;3281;47.658;9.166;2023-03-14T03:08:26;9.20;1.00
6496;DHT22;3281;47.658;9.166;2023-03-14T03:10:53;9.30;1.00
6496;DHT22;3281;47.658;9.166;2023-03-14T03:13:20;9.30;1.00
6496;DHT22;3281;47.658;9.166;2023-03-14T03:15:47;9.30;1.00
6496;DHT22;3281;47.658;9.166;2023-03-14T03:18:14;9.30;1.00
6496;DHT22;3281;47.658;9.166;2023-03-14T03:20:42;9.30;1.00
6496;DHT22;3281;47.658;9.166;2023-03-14T03:23:09;9.40;1.00
6496;DHT22;3281;47.658;9.166;2023-03-14T03:25:35;9.50;1.00
6496;DHT22;3281;47.658;9.166;2023-03-14T03:28:02;9.40;1.00
6496;DHT22;3281;47.658;9.166;2023-03-14T03:30:33;9.40;1.00
6496;DHT22;3281;47.658;9.166;2023-03-14T03:33:00;9.50;1.00
6496;DHT22;3281;47.658;9.166;2023-03-14T03:35:27;9.40;1.00
6496;DHT22;3281;47.658;9.166;2023-03-14T03:37:55;9.40;1.00
6496;DHT22;3281;47.658;9.166;2023-03-14T03:40:21;9.40;1.00
6496;DHT22;3281;47.658;9.166;2023-03-14T03:42:48;9.40;1.00
6496;DHT22;3281;47.658;9.166;2023-03-14T03:45:15;9.40;1.00
6496;DHT22;3281;47.658;9.166;2023-03-14T03:47:41;9.40;1.00
6496;DHT22;3281;47.658;9.166;2023-03-14T03:50:09;9.40;1.00
6496;DHT22;3281;47.658;9.166;2023-03-14T03:52:36;9.40;1.00
6496;DHT22;3281;47.658;9.166;2023-03-14T03:55:04;9.30;1.00
6496;DHT22;3281;47.658;9.166;2023-03-14T03:57:31;9.40;1.00
6496;DHT22;3281;47.658;9.166;2023-03-14T03:59:58;9.40;1.00
6496;DHT22;3281;47.658;9.166;2023-03-14T04:02:24;9.40;1.00
6496;DHT22;3281;47.658;9.166;2023-03-14T04:04:51;9.40;1.00
6496;DHT22;3281;47.658;9.166;2023-03-14T04:07:18;9.30;1.00
6496;DHT22;3281;47.658;9.166;2023-03-14T04:09:44;9.30;1.00
6496;DHT22;3281;47.658;9.166;2023-03-14T04:12:13;9.40;1.00
6496;DHT22;3281;47.658;9.166;2023-03-14T04:14:39;9.30;1.00
6496;DHT22;3281;47.658;9.166;2023-03-14T04:17:07;9.30;1.00
6496;DHT22;3281;47.658;9.166;2023-03-14T04:19:33;9.30;1.00
6496;DHT22;3281;47.658;9.166;2023-03-14T04:22:00;9.30;1.00
6496;DHT22;3281;47.658;9.166;2023-03-14T04:24:27;9.30;1.00
6496;DHT22;3281;47.658;9.166;2023-03-14T04:26:54;9.30;1.00
6496;DHT22;3281;47.658;9.166;2023-03-14T04:29:22;9.20;1.00
6496;DHT22;3281;47.658;9.166;2023-03-14T04:31:48;9.20;1.00
6496;DHT22;3281;47.658;9.166;2023-03-14T04:34:15;9.20;1.00
6496;DHT22;3281;47.658;9.166;2023-03-14T04:36:41;9.20;1.00
6496;DHT22;3281;47.658;9.166;2023-03-14T04:39:08;9.10;1.00
6496;DHT22;3281;47.658;9.166;2023-03-14T04:41:35;9.20;1.00
6496;DHT22;3281;47.658;9.166;2023-03-14T04:44:01;9.20;1.00
6496;DHT22;3281;47.658;9.166;2023-03-14T04:46:30;9.20;1.00
6496;DHT22;3281;47.658;9.166;2023-03-14T04:48:56;9.20;1.00
6496;DHT22;3281;47.658;9.166;2023-03-14T04:51:23;9.10;1.00
6496;DHT22;3281;47.658;9.166;2023-03-14T04:53:52;9.20;1.00
6496;DHT22;3281;47.658;9.166;2023-03-14T04:56:19;9.20;1.00
6496;DHT22;3281;47.658;9.166;2023-03-14T04:58:46;9.20;1.00
6496;DHT22;3281;47.658;9.166;2023-03-14T05:01:13;9.20;1.00
6496;DHT22;3281;47.658;9.166;2023-03-14T05:03:41;9.10;1.00
6496;DHT22;3281;47.658;9.166;2023-03-14T05:06:08;9.20;1.00
6496;DHT22;3281;47.658;9.166;2023-03-14T05:08:34;9.20;1.00
6496;DHT22;3281;47.658;9.166;2023-03-14T05:11:01;9.30;1.00
6496;DHT22;3281;47.658;9.166;2023-03-14T05:13:29;9.30;1.00
6496;DHT22;3281;47.658;9.166;2023-03-14T05:16:03;9.30;1.00
6496;DHT22;3281;47.658;9.166;2023-03-14T05:18:30;9.20;1.00
6496;DHT22;3281;47.658;9.166;2023-03-14T05:20:58;9.20;1.00
6496;DHT22;3281;47.658;9.166;2023-03-14T05:23:25;9.20;1.00
6496;DHT22;3281;47.658;9.166;2023-03-14T05:25:52;9.20;1.00
6496;DHT22;3281;47.658;9.166;2023-03-14T05:28:19;9.30;1.00
6496;DHT22;3281;47.658;9.166;2023-03-14T05:30:45;9.30;1.00
6496;DHT22;3281;47.658;9.166;2023-03-14T05:33:12;9.20;1.00
6496;DHT22;3281;47.658;9.166;2023-03-14T05:35:39;9.20;1.00
6496;DHT22;3281;47.658;9.166;2023-03-14T05:38:07;9.10;1.00
6496;DHT22;3281;47.658;9.166;2023-03-14T05:40:34;9.00;1.00
6496;DHT22;3281;47.658;9.166;2023-03-14T05:43:01;9.00;1.00
6496;DHT22;3281;47.658;9.166;2023-03-14T05:45:27;9.00;1.00
6496;DHT22;3281;47.658;9.166;2023-03-14T05:47:54;9.00;1.00
6496;DHT22;3281;47.658;9.166;2023-03-14T05:50:21;9.00;1.00
6496;DHT22;3281;47.658;9.166;2023-03-14T05:52:47;9.00;1.00
6496;DHT22;3281;47.658;9.166;2023-03-14T05:55:15;8.80;1.00
6496;DHT22;3281;47.658;9.166;2023-03-14T05:57:42;8.80;1.00
6496;DHT22;3281;47.658;9.166;2023-03-14T06:00:10;8.80;1.00
6496;DHT22;3281;47.658;9.166;2023-03-14T06:02:37;8.80;1.00
6496;DHT22;3281;47.658;9.166;2023-03-14T06:05:04;8.80;1.00
6496;DHT22;3281;47.658;9.166;2023-03-14T06:07:31;8.80;1.00
6496;DHT22;3281;47.658;9.166;2023-03-14T06:09:58;8.80;1.00
6496;DHT22;3281;47.658;9.166;2023-03-14T06:12:27;8.90;1.00
6496;DHT22;3281;47.658;9.166;2023-03-14T06:14:54;8.90;1.00
6496;DHT22;3281;47.658;9.166;2023-03-14T06:17:20;8.90;1.00
6496;DHT22;3281;47.658;9.166;2023-03-14T06:19:47;9.00;1.00
6496;DHT22;3281;47.658;9.166;2023-03-14T06:22:14;9.00;1.00
6496;DHT22;3281;47.658;9.166;2023-03-14T06:24:40;9.00;1.00
6496;DHT22;3281;47.658;9.166;2023-03-14T06:27:07;9.00;1.00
6496;DHT22;3281;47.658;9.166;2023-03-14T06:29:35;9.00;1.00
6496;DHT22;3281;47.658;9.166;2023-03-14T06:32:02;9.00;1.00
6496;DHT22;3281;47.658;9.166;2023-03-14T06:34:30;8.90;1.00
6496;DHT22;3281;47.658;9.166;2023-03-14T06:36:56;9.00;1.00
6496;DHT22;3281;47.658;9.166;2023-03-14T06:39:23;9.00;1.00
6496;DHT22;3281;47.658;9.166;2023-03-14T06:41:50;9.00;1.00
6496;DHT22;3281;47.658;9.166;2023-03-14T06:44:17;9.10;1.00
6496;DHT22;3281;47.658;9.166;2023-03-14T06:46:45;9.10;1.00
6496;DHT22;3281;47.658;9.166;2023-03-14T06:49:11;9.10;1.00
6496;DHT22;3281;47.658;9.166;2023-03-14T06:51:38;9.00;1.00
6496;DHT22;3281;47.658;9.166;2023-03-14T06:54:05;9.10;1.00
6496;DHT22;3281;47.658;9.166;2023-03-14T06:56:31;9.20;1.00
6496;DHT22;3281;47.658;9.166;2023-03-14T06:58:58;9.10;1.00
6496;DHT22;3281;47.658;9.166;2023-03-14T07:01:27;9.10;1.00
6496;DHT22;3281;47.658;9.166;2023-03-14T07:03:56;9.30;1.00
6496;DHT22;3281;47.658;9.166;2023-03-14T07:06:22;9.40;1.00
6496;DHT22;3281;47.658;9.166;2023-03-14T07:08:49;9.50;1.00
6496;DHT22;3281;47.658;9.166;2023-03-14T07:11:16;9.50;1.00
6496;DHT22;3281;47.658;9.166;2023-03-14T07:13:43;9.50;1.00
6496;DHT22;3281;47.658;9.166;2023-03-14T07:16:09;9.60;1.00
6496;DHT22;3281;47.658;9.166;2023-03-14T07:18:36;9.60;1.00
6496;DHT22;3281;47.658;9.166;2023-03-14T07:21:05;9.60;1.00
6496;DHT22;3281;47.658;9.166;2023-03-14T07:23:32;9.60;1.00
6496;DHT22;3281;47.658;9.166;2023-03-14T07:25:59;9.50;1.00
6496;DHT22;3281;47.658;9.166;2023-03-14T07:28:26;9.50;1.00
6496;DHT22;3281;47.658;9.166;2023-03-14T07:30:53;9.60;1.00
6496;DHT22;3281;47.658;9.166;2023-03-14T07:33:20;9.60;1.00
6496;DHT22;3281;47.658;9.166;2023-03-14T07:35:47;9.50;1.00
6496;DHT22;3281;47.658;9.166;2023-03-14T07:38:16;9.60;1.00
6496;DHT22;3281;47.658;9.166;2023-03-14T07:40:43;9.60;1.00
6496;DHT22;3281;47.658;9.166;2023-03-14T07:43:10;9.50;1.00
6496;DHT22;3281;47.658;9.166;2023-03-14T07:45:36;9.50;1.00
6496;DHT22;3281;47.658;9.166;2023-03-14T07:48:03;9.50;1.00
6496;DHT22;3281;47.658;9.166;2023-03-14T07:50:30;9.60;1.00
6496;DHT22;3281;47.658;9.166;2023-03-14T07:52:56;9.70;1.00
6496;DHT22;3281;47.658;9.166;2023-03-14T07:55:24;9.70;1.00
6496;DHT22;3281;47.658;9.166;2023-03-14T07:57:51;9.70;1.00
6496;DHT22;3281;47.658;9.166;2023-03-14T08:00:19;9.80;1.00
6496;DHT22;3281;47.658;9.166;2023-03-14T08:02:45;9.80;1.00
6496;DHT22;3281;47.658;9.166;2023-03-14T08:05:12;9.90;1.00
6496;DHT22;3281;47.658;9.166;2023-03-14T08:07:39;9.80;1.00
6496;DHT22;3281;47.658;9.166;2023-03-14T08:10:07;9.80;1.00
6496;DHT22;3281;47.658;9.166;2023-03-14T08:12:35;9.90;1.00
6496;DHT22;3281;47.658;9.166;2023-03-14T08:15:02;9.90;1.00
6496;DHT22;3281;47.658;9.166;2023-03-14T08:17:29;10.00;1.00
6496;DHT22;3281;47.658;9.166;2023-03-14T08:19:56;10.10;1.00
6496;DHT22;3281;47.658;9.166;2023-03-14T08:22:22;10.10;1.00
6496;DHT22;3281;47.658;9.166;2023-03-14T08:24:49;10.00;1.00
6496;DHT22;3281;47.658;9.166;2023-03-14T08:27:15;10.10;1.00
6496;DHT22;3281;47.658;9.166;2023-03-14T08:29:44;10.20;1.00
6496;DHT22;3281;47.658;9.166;2023-03-14T08:32:10;10.20;1.00
6496;DHT22;3281;47.658;9.166;2023-03-14T08:34:37;10.30;1.00
6496;DHT22;3281;47.658;9.166;2023-03-14T08:37:05;10.30;1.00
6496;DHT22;3281;47.658;9.166;2023-03-14T08:39:31;10.40;1.00
6496;DHT22;3281;47.658;9.166;2023-03-14T08:41:58;10.60;1.00
6496;DHT22;3281;47.658;9.166;2023-03-14T08:44:25;10.70;1.00
6496;DHT22;3281;47.658;9.166;2023-03-14T08:46:53;10.90;1.00
6496;DHT22;3281;47.658;9.166;2023-03-14T08:49:20;11.00;1.00
6496;DHT22;3281;47.658;9.166;2023-03-14T08:51:46;11.10;1.00
6496;DHT22;3281;47.658;9.166;2023-03-14T08:54:13;11.10;1.00
6496;DHT22;3281;47.658;9.166;2023-03-14T08:56:40;11.20;1.00
6496;DHT22;3281;47.658;9.166;2023-03-14T08:59:06;11.30;1.00
6496;DHT22;3281;47.658;9.166;2023-03-14T09:01:33;11.40;1.00
6496;DHT22;3281;47.658;9.166;2023-03-14T09:04:02;11.40;1.00
6496;DHT22;3281;47.658;9.166;2023-03-14T09:06:28;11.40;1.00
6496;DHT22;3281;47.658;9.166;2023-03-14T09:08:55;11.50;1.00
6496;DHT22;3281;47.658;9.166;2023-03-14T09:11:22;11.80;1.00
6496;DHT22;3281;47.658;9.166;2023-03-14T09:13:49;11.80;1.00
6496;DHT22;3281;47.658;9.166;2023-03-14T09:16:15;12.00;1.00
6496;DHT22;3281;47.658;9.166;2023-03-14T09:18:42;11.70;1.00
6496;DHT22;3281;47.658;9.166;2023-03-14T09:21:10;11.90;1.00
6496;DHT22;3281;47.658;9.166;2023-03-14T09:23:37;12.20;1.00
6496;DHT22;3281;47.658;9.166;2023-03-14T09:26:06;12.50;1.00
6496;DHT22;3281;47.658;9.166;2023-03-14T09:28:32;12.50;1.00
6496;DHT22;3281;47.658;9.166;2023-03-14T09:31:05;12.40;1.00
6496;DHT22;3281;47.658;9.166;2023-03-14T09:33:33;12.60;1.00
6496;DHT22;3281;47.658;9.166;2023-03-14T09:36:00;12.60;1.00
6496;DHT22;3281;47.658;9.166;2023-03-14T09:38:28;12.60;1.00
6496;DHT22;3281;47.658;9.166;2023-03-14T09:40:57;12.20;1.00
6496;DHT22;3281;47.658;9.166;2023-03-14T09:43:25;12.10;1.00
6496;DHT22;3281;47.658;9.166;2023-03-14T09:45:53;12.10;1.00
6496;DHT22;3281;47.658;9.166;2023-03-14T09:48:21;11.80;1.00
6496;DHT22;3281;47.658;9.166;2023-03-14T09:50:51;11.90;1.00
6496;DHT22;3281;47.658;9.166;2023-03-14T09:53:21;11.90;1.00
6496;DHT22;3281;47.658;9.166;2023-03-14T09:55:51;12.30;1.00
6496;DHT22;3281;47.658;9.166;2023-03-14T09:58:21;12.90;1.00
6496;DHT22;3281;47.658;9.166;2023-03-14T10:00:50;13.30;1.00
6496;DHT22;3281;47.658;9.166;2023-03-14T10:03:31;13.20;1.00
6496;DHT22;3281;47.658;9.166;2023-03-14T10:05:58;12.60;1.00
6496;DHT22;3281;47.658;9.166;2023-03-14T10:08:25;12.30;1.00
6496;DHT22;3281;47.658;9.166;2023-03-14T10:10:53;12.00;1.00
6496;DHT22;3281;47.658;9.166;2023-03-14T10:13:22;12.00;1.00
6496;DHT22;3281;47.658;9.166;2023-03-14T10:15:52;12.00;1.00
6496;DHT22;3281;47.658;9.166;2023-03-14T10:18:20;11.90;1.00
6496;DHT22;3281;47.658;9.166;2023-03-14T10:20:52;11.90;1.00
6496;DHT22;3281;47.658;9.166;2023-03-14T10:23:29;11.80;1.00
6496;DHT22;3281;47.658;9.166;2023-03-14T10:26:07;11.80;1.00
6496;DHT22;3281;47.658;9.166;2023-03-14T10:28:38;11.80;1.00
6496;DHT22;3281;47.658;9.166;2023-03-14T10:31:05;11.80;1.00
6496;DHT22;3281;47.658;9.166;2023-03-14T10:33:34;11.90;1.00
6496;DHT22;3281;47.658;9.166;2023-03-14T10:36:03;11.90;1.00
6496;DHT22;3281;47.658;9.166;2023-03-14T10:38:32;11.70;1.00
6496;DHT22;3281;47.658;9.166;2023-03-14T10:41:00;11.80;1.00
6496;DHT22;3281;47.658;9.166;2023-03-14T10:43:32;11.70;1.00
6496;DHT22;3281;47.658;9.166;2023-03-14T10:46:02;11.70;1.00
6496;DHT22;3281;47.658;9.166;2023-03-14T10:48:34;11.70;1.00
6496;DHT22;3281;47.658;9.166;2023-03-14T10:51:07;11.60;1.00
6496;DHT22;3281;47.658;9.166;2023-03-14T10:53:43;11.60;1.00
6496;DHT22;3281;47.658;9.166;2023-03-14T10:56:14;11.40;1.00
6496;DHT22;3281;47.658;9.166;2023-03-14T10:58:45;11.20;1.00
6496;DHT22;3281;47.658;9.166;2023-03-14T11:01:23;10.80;1.00
6496;DHT22;3281;47.658;9.166;2023-03-14T11:03:56;10.50;1.00
6496;DHT22;3281;47.658;9.166;2023-03-14T11:06:32;10.30;1.00
6496;DHT22;3281;47.658;9.166;2023-03-14T11:09:06;10.20;1.00
6496;DHT22;3281;47.658;9.166;2023-03-14T11:11:37;10.00;1.00
6496;DHT22;3281;47.658;9.166;2023-03-14T11:14:15;9.80;1.00
6496;DHT22;3281;47.658;9.166;2023-03-14T11:16:53;9.80;1.00
6496;DHT22;3281;47.658;9.166;2023-03-14T11:22:21;10.00;1.00
6496;DHT22;3281;47.658;9.166;2023-03-14T11:25:03;10.30;1.00
6496;DHT22;3281;47.658;9.166;2023-03-14T11:27:40;10.40;1.00
6496;DHT22;3281;47.658;9.166;2023-03-14T11:30:17;10.20;1.00
6496;DHT22;3281;47.658;9.166;2023-03-14T11:32:46;10.10;1.00
6496;DHT22;3281;47.658;9.166;2023-03-14T11:35:17;10.20;1.00
6496;DHT22;3281;47.658;9.166;2023-03-14T11:37:51;10.20;1.00
6496;DHT22;3281;47.658;9.166;2023-03-14T11:40:21;10.40;1.00
6496;DHT22;3281;47.658;9.166;2023-03-14T11:42:55;10.30;1.00
6496;DHT22;3281;47.658;9.166;2023-03-14T11:45:30;10.00;1.00
6496;DHT22;3281;47.658;9.166;2023-03-14T11:48:14;9.80;1.00
6496;DHT22;3281;47.658;9.166;2023-03-14T11:50:43;9.70;1.00
6496;DHT22;3281;47.658;9.166;2023-03-14T11:53:14;9.60;1.00
6496;DHT22;3281;47.658;9.166;2023-03-14T11:55:44;9.50;1.00
6496;DHT22;3281;47.658;9.166;2023-03-14T11:58:15;9.30;1.00
6496;DHT22;3281;47.658;9.166;2023-03-14T12:00:45;9.40;1.00
6496;DHT22;3281;47.658;9.166;2023-03-14T12:03:20;9.40;1.00
6496;DHT22;3281;47.658;9.166;2023-03-14T12:06:05;9.30;1.00
6496;DHT22;3281;47.658;9.166;2023-03-14T12:08:45;9.20;1.00
6496;DHT22;3281;47.658;9.166;2023-03-14T12:11:20;9.00;1.00
6496;DHT22;3281;47.658;9.166;2023-03-14T12:13:50;8.90;1.00
6496;DHT22;3281;47.658;9.166;2023-03-14T12:16:31;8.70;1.00
6496;DHT22;3281;47.658;9.166;2023-03-14T12:19:14;8.40;1.00
6496;DHT22;3281;47.658;9.166;2023-03-14T12:21:47;8.20;1.00
6496;DHT22;3281;47.658;9.166;2023-03-14T12:24:18;8.20;1.00
6496;DHT22;3281;47.658;9.166;2023-03-14T12:26:53;8.20;1.00
6496;DHT22;3281;47.658;9.166;2023-03-14T12:29:20;8.30;1.00
6496;DHT22;3281;47.658;9.166;2023-03-14T12:31:48;8.20;1.00
6496;DHT22;3281;47.658;9.166;2023-03-14T12:34:32;8.20;1.00
6496;DHT22;3281;47.658;9.166;2023-03-14T12:37:10;8.20;1.00
6496;DHT22;3281;47.658;9.166;2023-03-14T12:39:47;8.20;1.00
6496;DHT22;3281;47.658;9.166;2023-03-14T12:42:21;8.20;1.00
6496;DHT22;3281;47.658;9.166;2023-03-14T12:45:15;8.20;1.00
6496;DHT22;3281;47.658;9.166;2023-03-14T12:48:08;8.20;1.00
6496;DHT22;3281;47.658;9.166;2023-03-14T12:50:40;8.30;1.00
6496;DHT22;3281;47.658;9.166;2023-03-14T12:56:20;8.30;1.00
6496;DHT22;3281;47.658;9.166;2023-03-14T12:58:59;8.40;1.00
6496;DHT22;3281;47.658;9.166;2023-03-14T13:01:28;8.70;1.00
6496;DHT22;3281;47.658;9.166;2023-03-14T13:03:57;8.80;1.00
6496;DHT22;3281;47.658;9.166;2023-03-14T13:06:49;9.00;1.00
6496;DHT22;3281;47.658;9.166;2023-03-14T13:12:18;9.60;1.00
6496;DHT22;3281;47.658;9.166;2023-03-14T13:14:47;9.70;1.00
6496;DHT22;3281;47.658;9.166;2023-03-14T13:17:18;9.70;1.00
6496;DHT22;3281;47.658;9.166;2023-03-14T13:19:50;10.10;1.00
6496;DHT22;3281;47.658;9.166;2023-03-14T13:22:24;10.40;1.00
6496;DHT22;3281;47.658;9.166;2023-03-14T13:24:59;10.80;1.00
6496;DHT22;3281;47.658;9.166;2023-03-14T13:27:26;10.40;1.00
6496;DHT22;3281;47.658;9.166;2023-03-14T13:29:52;10.50;1.00
6496;DHT22;3281;47.658;9.166;2023-03-14T13:32:21;10.00;1.00
6496;DHT22;3281;47.658;9.166;2023-03-14T13:34:49;9.90;1.00
6496;DHT22;3281;47.658;9.166;2023-03-14T13:37:17;9.90;1.00
6496;DHT22;3281;47.658;9.166;2023-03-14T13:39:49;9.60;1.00
6496;DHT22;3281;47.658;9.166;2023-03-14T13:42:17;9.10;1.00
6496;DHT22;3281;47.658;9.166;2023-03-14T13:44:44;8.70;1.00
6496;DHT22;3281;47.658;9.166;2023-03-14T13:47:14;8.30;1.00
6496;DHT22;3281;47.658;9.166;2023-03-14T13:49:41;8.40;1.00
6496;DHT22;3281;47.658;9.166;2023-03-14T13:52:24;8.90;1.00
6496;DHT22;3281;47.658;9.166;2023-03-14T13:54:54;9.50;1.00
6496;DHT22;3281;47.658;9.166;2023-03-14T13:57:20;10.10;1.00
6496;DHT22;3281;47.658;9.166;2023-03-14T13:59:59;10.10;1.00
6496;DHT22;3281;47.658;9.166;2023-03-14T14:02:26;10.30;1.00
6496;DHT22;3281;47.658;9.166;2023-03-14T14:04:54;10.90;1.00
6496;DHT22;3281;47.658;9.166;2023-03-14T14:07:22;10.60;1.00
6496;DHT22;3281;47.658;9.166;2023-03-14T14:09:51;10.00;1.00
6496;DHT22;3281;47.658;9.166;2023-03-14T14:12:21;9.80;1.00
6496;DHT22;3281;47.658;9.166;2023-03-14T14:14:52;9.60;1.00
6496;DHT22;3281;47.658;9.166;2023-03-14T14:17:21;9.70;1.00
6496;DHT22;3281;47.658;9.166;2023-03-14T14:19:50;9.80;1.00
6496;DHT22;3281;47.658;9.166;2023-03-14T14:22:18;10.00;1.00
6496;DHT22;3281;47.658;9.166;2023-03-14T14:24:47;9.90;1.00
6496;DHT22;3281;47.658;9.166;2023-03-14T14:27:17;10.00;1.00
6496;DHT22;3281;47.658;9.166;2023-03-14T14:29:44;10.00;1.00
6496;DHT22;3281;47.658;9.166;2023-03-14T14:32:22;10.50;1.00
6496;DHT22;3281;47.658;9.166;2023-03-14T14:34:57;10.80;1.00
6496;DHT22;3281;47.658;9.166;2023-03-14T14:37:26;10.30;1.00
6496;DHT22;3281;47.658;9.166;2023-03-14T14:39:57;10.50;1.00
6496;DHT22;3281;47.658;9.166;2023-03-14T14:42:27;11.00;1.00
6496;DHT22;3281;47.658;9.166;2023-03-14T14:44:56;11.40;1.00
6496;DHT22;3281;47.658;9.166;2023-03-14T14:47:24;10.90;1.00
6496;DHT22;3281;47.658;9.166;2023-03-14T14:49:54;10.70;1.00
6496;DHT22;3281;47.658;9.166;2023-03-14T14:52:22;10.30;1.00
6496;DHT22;3281;47.658;9.166;2023-03-14T14:55:00;10.00;1.00
6496;DHT22;3281;47.658;9.166;2023-03-14T14:57:28;10.00;1.00
6496;DHT22;3281;47.658;9.166;2023-03-14T15:00:01;10.10;1.00
6496;DHT22;3281;47.658;9.166;2023-03-14T15:02:32;9.90;1.00
6496;DHT22;3281;47.658;9.166;2023-03-14T15:05:01;9.80;1.00
6496;DHT22;3281;47.658;9.166;2023-03-14T15:07:28;9.80;1.00
6496;DHT22;3281;47.658;9.166;2023-03-14T15:09:55;9.80;1.00
6496;DHT22;3281;47.658;9.166;2023-03-14T15:12:23;9.60;1.00
6496;DHT22;3281;47.658;9.166;2023-03-14T15:14:50;9.60;1.00
6496;DHT22;3281;47.658;9.166;2023-03-14T15:17:17;9.50;1.00
6496;DHT22;3281;47.658;9.166;2023-03-14T15:19:43;9.50;1.00
6496;DHT22;3281;47.658;9.166;2023-03-14T15:22:12;9.40;1.00
6496;DHT22;3281;47.658;9.166;2023-03-14T15:24:40;9.30;1.00
6496;DHT22;3281;47.658;9.166;2023-03-14T15:27:13;9.50;1.00
6496;DHT22;3281;47.658;9.166;2023-03-14T15:29:41;9.50;1.00
6496;DHT22;3281;47.658;9.166;2023-03-14T15:32:11;9.60;1.00
6496;DHT22;3281;47.658;9.166;2023-03-14T15:34:38;9.80;1.00
6496;DHT22;3281;47.658;9.166;2023-03-14T15:37:05;9.70;1.00
6496;DHT22;3281;47.658;9.166;2023-03-14T15:39:34;9.70;1.00
6496;DHT22;3281;47.658;9.166;2023-03-14T15:42:01;9.60;1.00
6496;DHT22;3281;47.658;9.166;2023-03-14T15:44:28;9.50;1.00
6496;DHT22;3281;47.658;9.166;2023-03-14T15:46:56;9.50;1.00
6496;DHT22;3281;47.658;9.166;2023-03-14T15:49:23;9.40;1.00
6496;DHT22;3281;47.658;9.166;2023-03-14T15:51:49;9.60;1.00
6496;DHT22;3281;47.658;9.166;2023-03-14T15:54:16;9.60;1.00
6496;DHT22;3281;47.658;9.166;2023-03-14T15:56:43;9.50;1.00
6496;DHT22;3281;47.658;9.166;2023-03-14T15:59:09;9.50;1.00
6496;DHT22;3281;47.658;9.166;2023-03-14T16:01:36;9.50;1.00
6496;DHT22;3281;47.658;9.166;2023-03-14T16:04:04;9.40;1.00
6496;DHT22;3281;47.658;9.166;2023-03-14T16:06:31;9.40;1.00
6496;DHT22;3281;47.658;9.166;2023-03-14T16:08:57;9.60;1.00
6496;DHT22;3281;47.658;9.166;2023-03-14T16:11:25;10.30;1.00
6496;DHT22;3281;47.658;9.166;2023-03-14T16:13:51;10.10;1.00
6496;DHT22;3281;47.658;9.166;2023-03-14T16:16:18;9.80;1.00
6496;DHT22;3281;47.658;9.166;2023-03-14T16:18:45;9.60;1.00
6496;DHT22;3281;47.658;9.166;2023-03-14T16:21:15;9.60;1.00
6496;DHT22;3281;47.658;9.166;2023-03-14T16:23:42;9.50;1.00
6496;DHT22;3281;47.658;9.166;2023-03-14T16:26:11;9.50;1.00
6496;DHT22;3281;47.658;9.166;2023-03-14T16:28:38;9.60;1.00
6496;DHT22;3281;47.658;9.166;2023-03-14T16:31:06;9.80;1.00
6496;DHT22;3281;47.658;9.166;2023-03-14T16:33:34;9.90;1.00
6496;DHT22;3281;47.658;9.166;2023-03-14T16:36:03;9.90;1.00
6496;DHT22;3281;47.658;9.166;2023-03-14T16:38:34;9.70;1.00
6496;DHT22;3281;47.658;9.166;2023-03-14T16:41:03;9.60;1.00
6496;DHT22;3281;47.658;9.166;2023-03-14T16:43:30;9.50;1.00
6496;DHT22;3281;47.658;9.166;2023-03-14T16:45:59;9.40;1.00
6496;DHT22;3281;47.658;9.166;2023-03-14T16:48:26;9.40;1.00